sensor_id;sensor_type;location;lat;lon;timestamp;pressure;altitude;pressure_sealevel;temperature;humidity
50774;BME280;36745;48.544;8.918;2022-08-21T00:00:37;97526.59;;;13.98;77.80
50774;BME280;36745;48.544;8.918;2022-08-21T00:03:38;97523.81;;;13.89;78.08
50774;BME280;36745;48.544;8.918;2022-08-21T00:06:39;97528.72;;;13.85;78.16
50774;BME280;36745;48.544;8.918;2022-08-21T00:09:40;97516.19;;;13.71;78.60
50774;BME280;36745;48.544;8.918;2022-08-21T00:12:42;97514.63;;;13.61;78.38
50774;BME280;36745;48.544;8.918;2022-08-21T00:15:43;97515.22;;;13.56;79.13
50774;BME280;36745;48.544;8.918;2022-08-21T00:18:44;97509.69;;;13.56;79.46
50774;BME280;36745;48.544;8.918;2022-08-21T00:21:48;97509.09;;;13.61;78.73
50774;BME280;36745;48.544;8.918;2022-08-21T00:24:49;97511.97;;;13.49;79.19
50774;BME280;36745;48.544;8.918;2022-08-21T00:27:50;97509.03;;;13.43;79.67
50774;BME280;36745;48.544;8.918;2022-08-21T00:30:54;97499.34;;;13.48;78.85
50774;BME280;36745;48.544;8.918;2022-08-21T00:33:57;97502.63;;;13.24;79.16
50774;BME280;36745;48.544;8.918;2022-08-21T00:36:58;97499.03;;;13.15;78.87
50774;BME280;36745;48.544;8.918;2022-08-21T00:40:01;97502.44;;;13.19;78.57
50774;BME280;36745;48.544;8.918;2022-08-21T00:43:04;97503.91;;;13.11;78.79
50774;BME280;36745;48.544;8.918;2022-08-21T00:46:06;97507.50;;;12.98;80.27
50774;BME280;36745;48.544;8.918;2022-08-21T00:49:09;97507.25;;;13.06;80.96
50774;BME280;36745;48.544;8.918;2022-08-21T00:52:15;97497.59;;;13.10;79.91
50774;BME280;36745;48.544;8.918;2022-08-21T00:55:19;97494.63;;;13.04;80.35
50774;BME280;36745;48.544;8.918;2022-08-21T00:58:21;97497.72;;;13.07;79.88
50774;BME280;36745;48.544;8.918;2022-08-21T01:01:22;97493.81;;;12.95;80.04
50774;BME280;36745;48.544;8.918;2022-08-21T01:04:23;97501.72;;;12.84;80.72
50774;BME280;36745;48.544;8.918;2022-08-21T01:07:24;97503.16;;;12.88;80.90
50774;BME280;36745;48.544;8.918;2022-08-21T01:10:26;97492.72;;;12.92;81.30
50774;BME280;36745;48.544;8.918;2022-08-21T01:13:29;97495.81;;;12.94;80.61
50774;BME280;36745;48.544;8.918;2022-08-21T01:16:32;97494.91;;;12.97;79.92
50774;BME280;36745;48.544;8.918;2022-08-21T01:19:33;97492.19;;;12.85;80.04
50774;BME280;36745;48.544;8.918;2022-08-21T01:22:35;97483.97;;;12.72;81.10
50774;BME280;36745;48.544;8.918;2022-08-21T01:25:36;97492.56;;;12.74;80.85
50774;BME280;36745;48.544;8.918;2022-08-21T01:32:09;97495.44;;;12.61;80.95
50774;BME280;36745;48.544;8.918;2022-08-21T01:35:11;97492.13;;;12.54;81.25
50774;BME280;36745;48.544;8.918;2022-08-21T01:38:12;97477.63;;;12.63;81.01
50774;BME280;36745;48.544;8.918;2022-08-21T01:41:14;97473.69;;;12.51;81.10
50774;BME280;36745;48.544;8.918;2022-08-21T01:44:15;97482.16;;;12.35;81.27
50774;BME280;36745;48.544;8.918;2022-08-21T01:47:16;97479.69;;;12.37;81.76
50774;BME280;36745;48.544;8.918;2022-08-21T01:50:20;97482.00;;;12.38;81.84
50774;BME280;36745;48.544;8.918;2022-08-21T01:53:21;97476.03;;;12.40;81.62
50774;BME280;36745;48.544;8.918;2022-08-21T01:56:22;97479.59;;;12.40;81.27
50774;BME280;36745;48.544;8.918;2022-08-21T01:59:23;97476.53;;;12.26;81.46
50774;BME280;36745;48.544;8.918;2022-08-21T02:02:25;97467.59;;;12.22;82.45
50774;BME280;36745;48.544;8.918;2022-08-21T02:05:26;97473.66;;;12.29;82.05
50774;BME280;36745;48.544;8.918;2022-08-21T02:08:28;97465.81;;;12.28;81.90
50774;BME280;36745;48.544;8.918;2022-08-21T02:11:30;97461.41;;;12.17;81.41
50774;BME280;36745;48.544;8.918;2022-08-21T02:14:31;97465.31;;;12.07;81.75
50774;BME280;36745;48.544;8.918;2022-08-21T02:17:45;97464.69;;;12.03;82.18
50774;BME280;36745;48.544;8.918;2022-08-21T02:20:48;97465.91;;;12.02;82.27
50774;BME280;36745;48.544;8.918;2022-08-21T02:23:49;97458.47;;;11.99;82.08
50774;BME280;36745;48.544;8.918;2022-08-21T02:26:50;97459.81;;;11.95;82.03
50774;BME280;36745;48.544;8.918;2022-08-21T02:29:51;97456.84;;;11.89;82.04
50774;BME280;36745;48.544;8.918;2022-08-21T02:32:52;97465.06;;;11.80;82.57
50774;BME280;36745;48.544;8.918;2022-08-21T02:35:54;97462.94;;;11.84;82.85
50774;BME280;36745;48.544;8.918;2022-08-21T02:38:55;97463.28;;;11.86;82.56
50774;BME280;36745;48.544;8.918;2022-08-21T02:41:56;97459.94;;;11.91;81.93
50774;BME280;36745;48.544;8.918;2022-08-21T02:44:57;97453.78;;;11.87;81.74
50774;BME280;36745;48.544;8.918;2022-08-21T02:48:02;97454.22;;;11.73;82.06
50774;BME280;36745;48.544;8.918;2022-08-21T02:51:10;97445.81;;;11.64;82.29
50774;BME280;36745;48.544;8.918;2022-08-21T02:54:12;97462.63;;;11.57;82.35
50774;BME280;36745;48.544;8.918;2022-08-21T02:57:13;97458.56;;;11.49;82.79
50774;BME280;36745;48.544;8.918;2022-08-21T03:00:15;97460.75;;;11.54;82.84
50774;BME280;36745;48.544;8.918;2022-08-21T03:03:17;97461.63;;;11.51;82.84
50774;BME280;36745;48.544;8.918;2022-08-21T03:06:20;97457.34;;;11.50;82.69
50774;BME280;36745;48.544;8.918;2022-08-21T03:09:21;97456.66;;;11.46;83.25
50774;BME280;36745;48.544;8.918;2022-08-21T03:12:23;97451.91;;;11.46;83.64
50774;BME280;36745;48.544;8.918;2022-08-21T03:15:24;97457.56;;;11.43;82.59
50774;BME280;36745;48.544;8.918;2022-08-21T03:18:25;97457.25;;;11.28;83.50
50774;BME280;36745;48.544;8.918;2022-08-21T03:21:26;97453.25;;;11.29;83.37
50774;BME280;36745;48.544;8.918;2022-08-21T03:24:28;97454.56;;;11.24;83.28
50774;BME280;36745;48.544;8.918;2022-08-21T03:27:29;97451.81;;;11.24;83.86
50774;BME280;36745;48.544;8.918;2022-08-21T03:30:31;97449.28;;;11.30;83.42
50774;BME280;36745;48.544;8.918;2022-08-21T03:33:32;97450.50;;;11.16;83.25
50774;BME280;36745;48.544;8.918;2022-08-21T03:36:33;97453.91;;;11.20;83.36
50774;BME280;36745;48.544;8.918;2022-08-21T03:39:34;97460.19;;;11.08;83.86
50774;BME280;36745;48.544;8.918;2022-08-21T03:42:35;97464.84;;;11.11;83.70
50774;BME280;36745;48.544;8.918;2022-08-21T03:45:38;97461.75;;;11.09;83.29
50774;BME280;36745;48.544;8.918;2022-08-21T03:48:39;97460.72;;;11.03;83.64
50774;BME280;36745;48.544;8.918;2022-08-21T03:51:40;97459.53;;;11.04;83.79
50774;BME280;36745;48.544;8.918;2022-08-21T03:54:41;97453.34;;;11.00;83.70
50774;BME280;36745;48.544;8.918;2022-08-21T03:57:42;97457.19;;;10.90;84.04
50774;BME280;36745;48.544;8.918;2022-08-21T04:00:52;97463.03;;;10.92;83.99
50774;BME280;36745;48.544;8.918;2022-08-21T04:03:53;97457.75;;;10.85;83.89
50774;BME280;36745;48.544;8.918;2022-08-21T04:06:55;97465.00;;;10.79;83.90
50774;BME280;36745;48.544;8.918;2022-08-21T04:09:56;97474.50;;;10.78;84.20
50774;BME280;36745;48.544;8.918;2022-08-21T04:12:57;97470.53;;;10.79;84.17
50774;BME280;36745;48.544;8.918;2022-08-21T04:15:58;97474.38;;;10.81;84.14
50774;BME280;36745;48.544;8.918;2022-08-21T04:18:59;97468.63;;;10.76;84.33
50774;BME280;36745;48.544;8.918;2022-08-21T04:22:00;97465.19;;;10.72;84.53
50774;BME280;36745;48.544;8.918;2022-08-21T04:25:04;97476.59;;;10.74;84.14
50774;BME280;36745;48.544;8.918;2022-08-21T04:28:05;97479.34;;;10.74;84.09
50774;BME280;36745;48.544;8.918;2022-08-21T04:31:08;97495.88;;;10.74;84.45
50774;BME280;36745;48.544;8.918;2022-08-21T04:34:09;97488.81;;;10.73;84.13
50774;BME280;36745;48.544;8.918;2022-08-21T04:37:10;97491.75;;;10.66;84.30
50774;BME280;36745;48.544;8.918;2022-08-21T04:40:13;97490.22;;;10.65;84.51
50774;BME280;36745;48.544;8.918;2022-08-21T04:43:14;97489.66;;;10.70;83.99
50774;BME280;36745;48.544;8.918;2022-08-21T04:46:15;97497.69;;;10.64;84.09
50774;BME280;36745;48.544;8.918;2022-08-21T04:49:16;97502.19;;;10.58;84.79
50774;BME280;36745;48.544;8.918;2022-08-21T04:52:21;97501.09;;;10.56;84.72
50774;BME280;36745;48.544;8.918;2022-08-21T04:55:26;97499.69;;;10.64;84.47
50774;BME280;36745;48.544;8.918;2022-08-21T04:58:28;97498.59;;;10.61;84.75
50774;BME280;36745;48.544;8.918;2022-08-21T05:01:33;97507.28;;;10.60;84.42
50774;BME280;36745;48.544;8.918;2022-08-21T05:04:39;97503.44;;;10.57;84.57
50774;BME280;36745;48.544;8.918;2022-08-21T05:07:42;97502.13;;;10.62;84.67
50774;BME280;36745;48.544;8.918;2022-08-21T05:10:45;97509.63;;;10.61;84.70
50774;BME280;36745;48.544;8.918;2022-08-21T05:13:46;97514.78;;;10.59;85.23
50774;BME280;36745;48.544;8.918;2022-08-21T05:16:47;97513.03;;;10.65;85.10
50774;BME280;36745;48.544;8.918;2022-08-21T05:19:49;97512.50;;;10.70;85.27
50774;BME280;36745;48.544;8.918;2022-08-21T05:22:49;97518.59;;;10.78;84.95
50774;BME280;36745;48.544;8.918;2022-08-21T05:25:52;97515.81;;;11.19;85.60
50774;BME280;36745;48.544;8.918;2022-08-21T05:28:55;97516.38;;;12.50;87.92
50774;BME280;36745;48.544;8.918;2022-08-21T05:31:56;97516.75;;;13.48;87.22
50774;BME280;36745;48.544;8.918;2022-08-21T05:34:57;97517.22;;;14.05;86.99
50774;BME280;36745;48.544;8.918;2022-08-21T05:37:59;97521.25;;;14.13;84.69
50774;BME280;36745;48.544;8.918;2022-08-21T05:41:00;97522.94;;;14.10;82.68
50774;BME280;36745;48.544;8.918;2022-08-21T05:44:01;97520.94;;;14.02;81.51
50774;BME280;36745;48.544;8.918;2022-08-21T05:47:07;97523.72;;;14.20;81.39
50774;BME280;36745;48.544;8.918;2022-08-21T05:50:09;97520.06;;;14.32;81.51
50774;BME280;36745;48.544;8.918;2022-08-21T05:53:11;97525.34;;;14.48;80.54
50774;BME280;36745;48.544;8.918;2022-08-21T05:56:13;97519.50;;;14.55;80.31
50774;BME280;36745;48.544;8.918;2022-08-21T05:59:14;97526.91;;;14.67;80.00
50774;BME280;36745;48.544;8.918;2022-08-21T06:02:17;97524.72;;;14.81;79.91
50774;BME280;36745;48.544;8.918;2022-08-21T06:05:19;97531.19;;;14.96;79.47
50774;BME280;36745;48.544;8.918;2022-08-21T06:08:20;97529.47;;;15.17;79.38
50774;BME280;36745;48.544;8.918;2022-08-21T06:11:22;97522.97;;;15.29;79.18
50774;BME280;36745;48.544;8.918;2022-08-21T06:14:23;97521.19;;;15.49;79.56
50774;BME280;36745;48.544;8.918;2022-08-21T06:17:24;97524.53;;;15.72;79.05
50774;BME280;36745;48.544;8.918;2022-08-21T06:20:25;97523.63;;;15.75;78.13
50774;BME280;36745;48.544;8.918;2022-08-21T06:23:26;97528.81;;;15.82;78.78
50774;BME280;36745;48.544;8.918;2022-08-21T06:26:27;97522.00;;;15.92;78.22
50774;BME280;36745;48.544;8.918;2022-08-21T06:29:29;97520.34;;;15.76;77.76
50774;BME280;36745;48.544;8.918;2022-08-21T06:32:30;97522.72;;;15.69;77.72
50774;BME280;36745;48.544;8.918;2022-08-21T06:35:31;97522.66;;;15.78;78.14
50774;BME280;36745;48.544;8.918;2022-08-21T06:38:32;97515.34;;;15.89;78.12
50774;BME280;36745;48.544;8.918;2022-08-21T06:41:34;97518.47;;;16.15;78.54
50774;BME280;36745;48.544;8.918;2022-08-21T06:44:35;97509.34;;;16.38;78.87
50774;BME280;36745;48.544;8.918;2022-08-21T06:47:35;97501.97;;;16.74;78.76
50774;BME280;36745;48.544;8.918;2022-08-21T06:50:36;97505.50;;;16.98;77.96
50774;BME280;36745;48.544;8.918;2022-08-21T06:53:37;97508.75;;;17.11;77.96
50774;BME280;36745;48.544;8.918;2022-08-21T06:56:38;97504.53;;;17.31;77.61
50774;BME280;36745;48.544;8.918;2022-08-21T06:59:39;97509.63;;;17.47;77.77
50774;BME280;36745;48.544;8.918;2022-08-21T07:02:43;97500.69;;;17.72;77.86
50774;BME280;36745;48.544;8.918;2022-08-21T07:05:44;97495.00;;;17.81;77.26
50774;BME280;36745;48.544;8.918;2022-08-21T07:08:45;97500.72;;;17.92;76.82
50774;BME280;36745;48.544;8.918;2022-08-21T07:11:50;97494.97;;;18.16;76.86
50774;BME280;36745;48.544;8.918;2022-08-21T07:14:51;97498.13;;;18.44;76.78
50774;BME280;36745;48.544;8.918;2022-08-21T07:17:52;97496.34;;;18.61;75.98
50774;BME280;36745;48.544;8.918;2022-08-21T07:20:54;97495.47;;;18.75;76.10
50774;BME280;36745;48.544;8.918;2022-08-21T07:23:55;97500.31;;;18.75;75.47
50774;BME280;36745;48.544;8.918;2022-08-21T07:30:07;97496.50;;;18.98;75.29
50774;BME280;36745;48.544;8.918;2022-08-21T07:33:08;97489.25;;;19.12;75.07
50774;BME280;36745;48.544;8.918;2022-08-21T07:36:10;97488.16;;;19.29;74.61
50774;BME280;36745;48.544;8.918;2022-08-21T07:39:11;97484.34;;;19.27;73.80
50774;BME280;36745;48.544;8.918;2022-08-21T07:42:12;97488.53;;;19.43;73.80
50774;BME280;36745;48.544;8.918;2022-08-21T07:45:14;97481.09;;;19.65;73.90
50774;BME280;36745;48.544;8.918;2022-08-21T07:48:16;97478.94;;;19.81;73.25
50774;BME280;36745;48.544;8.918;2022-08-21T07:51:18;97476.75;;;19.96;73.41
50774;BME280;36745;48.544;8.918;2022-08-21T07:54:20;97488.00;;;20.07;72.96
50774;BME280;36745;48.544;8.918;2022-08-21T07:57:21;97481.72;;;20.23;72.21
50774;BME280;36745;48.544;8.918;2022-08-21T08:00:24;97478.78;;;20.43;72.61
50774;BME280;36745;48.544;8.918;2022-08-21T08:03:25;97478.34;;;20.56;71.91
50774;BME280;36745;48.544;8.918;2022-08-21T08:06:26;97472.53;;;20.71;71.65
50774;BME280;36745;48.544;8.918;2022-08-21T08:09:27;97477.16;;;20.85;71.44
50774;BME280;36745;48.544;8.918;2022-08-21T08:12:28;97477.16;;;20.96;70.96
50774;BME280;36745;48.544;8.918;2022-08-21T08:15:30;97479.22;;;21.01;70.45
50774;BME280;36745;48.544;8.918;2022-08-21T08:18:31;97468.84;;;21.18;69.93
50774;BME280;36745;48.544;8.918;2022-08-21T08:21:35;97472.94;;;21.40;69.80
50774;BME280;36745;48.544;8.918;2022-08-21T08:24:40;97467.06;;;21.49;68.68
50774;BME280;36745;48.544;8.918;2022-08-21T08:27:42;97464.50;;;21.40;67.99
50774;BME280;36745;48.544;8.918;2022-08-21T08:30:44;97459.94;;;21.42;67.43
50774;BME280;36745;48.544;8.918;2022-08-21T08:33:46;97452.78;;;21.58;67.48
50774;BME280;36745;48.544;8.918;2022-08-21T08:36:49;97450.97;;;21.71;67.03
50774;BME280;36745;48.544;8.918;2022-08-21T08:39:50;97446.63;;;21.87;66.86
50774;BME280;36745;48.544;8.918;2022-08-21T08:42:52;97433.34;;;21.93;66.21
50774;BME280;36745;48.544;8.918;2022-08-21T08:45:57;97440.47;;;22.05;65.21
50774;BME280;36745;48.544;8.918;2022-08-21T08:52:33;97433.50;;;22.34;64.10
50774;BME280;36745;48.544;8.918;2022-08-21T08:55:43;97431.69;;;22.37;63.72
50774;BME280;36745;48.544;8.918;2022-08-21T08:58:44;97427.13;;;22.34;62.87
50774;BME280;36745;48.544;8.918;2022-08-21T09:01:45;97414.78;;;22.48;62.77
50774;BME280;36745;48.544;8.918;2022-08-21T09:04:50;97414.31;;;22.44;61.37
50774;BME280;36745;48.544;8.918;2022-08-21T09:11:36;97415.94;;;22.23;60.37
50774;BME280;36745;48.544;8.918;2022-08-21T09:15:27;97417.25;;;22.63;60.57
50774;BME280;36745;48.544;8.918;2022-08-21T09:25:27;97402.22;;;23.01;58.26
50774;BME280;36745;48.544;8.918;2022-08-21T09:28:35;97398.69;;;23.30;58.58
50774;BME280;36745;48.544;8.918;2022-08-21T09:31:39;97396.22;;;23.51;58.19
50774;BME280;36745;48.544;8.918;2022-08-21T09:34:40;97397.53;;;23.74;57.40
50774;BME280;36745;48.544;8.918;2022-08-21T09:41:02;97388.69;;;24.32;56.05
50774;BME280;36745;48.544;8.918;2022-08-21T09:44:08;97393.25;;;24.35;55.16
50774;BME280;36745;48.544;8.918;2022-08-21T09:47:10;97392.53;;;24.53;53.71
50774;BME280;36745;48.544;8.918;2022-08-21T09:50:16;97391.44;;;24.56;52.39
50774;BME280;36745;48.544;8.918;2022-08-21T09:53:29;97393.25;;;24.73;53.69
50774;BME280;36745;48.544;8.918;2022-08-21T09:56:37;97389.75;;;24.85;53.05
50774;BME280;36745;48.544;8.918;2022-08-21T10:00:23;97379.38;;;25.12;53.05
50774;BME280;36745;48.544;8.918;2022-08-21T10:03:28;97384.31;;;25.57;52.39
50774;BME280;36745;48.544;8.918;2022-08-21T10:06:29;97372.59;;;25.79;51.43
50774;BME280;36745;48.544;8.918;2022-08-21T10:09:30;97376.38;;;25.81;49.49
50774;BME280;36745;48.544;8.918;2022-08-21T10:12:40;97372.19;;;26.01;50.32
50774;BME280;36745;48.544;8.918;2022-08-21T10:26:43;97358.69;;;25.81;47.23
50774;BME280;36745;48.544;8.918;2022-08-21T10:30:03;97357.66;;;25.52;45.68
50774;BME280;36745;48.544;8.918;2022-08-21T10:36:39;97358.72;;;25.36;45.42
50774;BME280;36745;48.544;8.918;2022-08-21T10:47:08;97337.94;;;26.18;45.08
50774;BME280;36745;48.544;8.918;2022-08-21T10:50:43;97337.16;;;26.30;45.04
50774;BME280;36745;48.544;8.918;2022-08-21T10:57:04;97325.13;;;26.64;44.59
50774;BME280;36745;48.544;8.918;2022-08-21T11:00:15;97329.16;;;26.89;44.00
50774;BME280;36745;48.544;8.918;2022-08-21T11:03:39;97323.31;;;26.40;42.21
50774;BME280;36745;48.544;8.918;2022-08-21T11:06:47;97321.56;;;25.90;41.64
50774;BME280;36745;48.544;8.918;2022-08-21T11:09:49;97312.16;;;26.21;43.47
50774;BME280;36745;48.544;8.918;2022-08-21T11:13:17;97323.53;;;26.55;43.49
50774;BME280;36745;48.544;8.918;2022-08-21T11:19:36;97306.88;;;26.52;41.83
50774;BME280;36745;48.544;8.918;2022-08-21T11:22:46;97309.81;;;26.80;41.49
50774;BME280;36745;48.544;8.918;2022-08-21T11:25:53;97305.78;;;26.89;41.60
50774;BME280;36745;48.544;8.918;2022-08-21T11:29:16;97306.97;;;26.59;40.13
50774;BME280;36745;48.544;8.918;2022-08-21T11:35:51;97303.53;;;26.40;39.38
50774;BME280;36745;48.544;8.918;2022-08-21T11:55:28;97291.00;;;27.73;38.33
50774;BME280;36745;48.544;8.918;2022-08-21T11:58:45;97283.81;;;27.72;38.21
50774;BME280;36745;48.544;8.918;2022-08-21T12:01:48;97285.34;;;27.73;37.47
50774;BME280;36745;48.544;8.918;2022-08-21T12:04:54;97281.13;;;27.67;37.31
50774;BME280;36745;48.544;8.918;2022-08-21T12:11:08;97282.53;;;27.03;36.38
50774;BME280;36745;48.544;8.918;2022-08-21T12:14:18;97275.06;;;27.13;36.21
50774;BME280;36745;48.544;8.918;2022-08-21T12:17:22;97271.00;;;26.81;35.31
50774;BME280;36745;48.544;8.918;2022-08-21T12:20:43;97272.03;;;26.70;35.75
50774;BME280;36745;48.544;8.918;2022-08-21T12:27:28;97258.41;;;26.68;35.30
50774;BME280;36745;48.544;8.918;2022-08-21T12:30:36;97255.78;;;27.04;35.06
50774;BME280;36745;48.544;8.918;2022-08-21T12:33:38;97247.19;;;27.18;34.28
50774;BME280;36745;48.544;8.918;2022-08-21T12:36:48;97249.50;;;26.98;32.93
50774;BME280;36745;48.544;8.918;2022-08-21T12:39:52;97245.19;;;27.05;34.04
50774;BME280;36745;48.544;8.918;2022-08-21T12:42:58;97252.84;;;27.18;33.61
50774;BME280;36745;48.544;8.918;2022-08-21T12:45:59;97250.25;;;27.27;33.80
50774;BME280;36745;48.544;8.918;2022-08-21T12:49:14;97247.47;;;27.06;32.65
50774;BME280;36745;48.544;8.918;2022-08-21T12:52:27;97249.50;;;26.98;33.43
50774;BME280;36745;48.544;8.918;2022-08-21T12:55:32;97243.88;;;27.06;33.51
50774;BME280;36745;48.544;8.918;2022-08-21T12:58:35;97243.84;;;27.27;33.49
50774;BME280;36745;48.544;8.918;2022-08-21T13:01:49;97235.34;;;26.98;32.73
50774;BME280;36745;48.544;8.918;2022-08-21T13:04:52;97231.00;;;26.97;31.96
50774;BME280;36745;48.544;8.918;2022-08-21T13:07:57;97238.03;;;27.04;33.26
50774;BME280;36745;48.544;8.918;2022-08-21T13:11:03;97241.06;;;27.34;32.86
50774;BME280;36745;48.544;8.918;2022-08-21T13:14:28;97231.66;;;27.39;32.40
50774;BME280;36745;48.544;8.918;2022-08-21T13:17:32;97227.88;;;27.08;31.61
50774;BME280;36745;48.544;8.918;2022-08-21T13:20:38;97228.38;;;27.28;32.19
50774;BME280;36745;48.544;8.918;2022-08-21T13:23:40;97228.69;;;27.45;32.27
50774;BME280;36745;48.544;8.918;2022-08-21T13:26:41;97232.94;;;27.59;32.20
50774;BME280;36745;48.544;8.918;2022-08-21T13:29:45;97224.31;;;27.44;30.87
50774;BME280;36745;48.544;8.918;2022-08-21T13:32:55;97228.78;;;27.32;31.16
50774;BME280;36745;48.544;8.918;2022-08-21T13:39:07;97219.25;;;27.14;31.10
50774;BME280;36745;48.544;8.918;2022-08-21T13:42:11;97215.75;;;27.29;31.38
50774;BME280;36745;48.544;8.918;2022-08-21T13:45:21;97213.13;;;27.31;31.52
50774;BME280;36745;48.544;8.918;2022-08-21T13:48:25;97213.66;;;26.80;30.48
50774;BME280;36745;48.544;8.918;2022-08-21T13:51:27;97208.16;;;26.95;31.31
50774;BME280;36745;48.544;8.918;2022-08-21T13:54:37;97207.91;;;27.14;31.12
50774;BME280;36745;48.544;8.918;2022-08-21T13:57:38;97203.50;;;27.34;31.17
50774;BME280;36745;48.544;8.918;2022-08-21T14:00:52;97214.88;;;27.41;30.88
50774;BME280;36745;48.544;8.918;2022-08-21T14:04:03;97205.53;;;27.54;31.22
50774;BME280;36745;48.544;8.918;2022-08-21T14:07:20;97200.63;;;27.54;30.79
50774;BME280;36745;48.544;8.918;2022-08-21T14:10:24;97205.91;;;27.50;30.42
50774;BME280;36745;48.544;8.918;2022-08-21T14:13:47;97198.69;;;27.49;31.23
50774;BME280;36745;48.544;8.918;2022-08-21T14:16:56;97190.75;;;27.48;29.90
50774;BME280;36745;48.544;8.918;2022-08-21T14:19:58;97197.75;;;27.19;30.32
50774;BME280;36745;48.544;8.918;2022-08-21T14:22:59;97191.41;;;27.26;30.81
50774;BME280;36745;48.544;8.918;2022-08-21T14:26:03;97183.91;;;27.36;31.16
50774;BME280;36745;48.544;8.918;2022-08-21T14:29:08;97183.16;;;27.35;30.07
50774;BME280;36745;48.544;8.918;2022-08-21T14:32:20;97184.22;;;27.25;30.78
50774;BME280;36745;48.544;8.918;2022-08-21T14:35:23;97186.34;;;27.03;30.59
50774;BME280;36745;48.544;8.918;2022-08-21T14:38:27;97179.25;;;27.18;30.74
50774;BME280;36745;48.544;8.918;2022-08-21T14:41:31;97179.75;;;27.37;30.80
50774;BME280;36745;48.544;8.918;2022-08-21T14:44:34;97165.41;;;27.35;30.19
50774;BME280;36745;48.544;8.918;2022-08-21T14:47:35;97165.19;;;27.33;30.54
50774;BME280;36745;48.544;8.918;2022-08-21T14:50:40;97166.03;;;27.12;30.34
50774;BME280;36745;48.544;8.918;2022-08-21T14:53:41;97166.09;;;26.99;30.24
50774;BME280;36745;48.544;8.918;2022-08-21T14:56:42;97166.09;;;26.99;30.87
50774;BME280;36745;48.544;8.918;2022-08-21T14:59:43;97168.53;;;26.95;30.43
50774;BME280;36745;48.544;8.918;2022-08-21T15:02:47;97164.09;;;27.07;30.54
50774;BME280;36745;48.544;8.918;2022-08-21T15:05:48;97157.38;;;27.18;31.08
50774;BME280;36745;48.544;8.918;2022-08-21T15:08:52;97148.94;;;27.26;30.83
50774;BME280;36745;48.544;8.918;2022-08-21T15:11:57;97158.94;;;27.27;31.00
50774;BME280;36745;48.544;8.918;2022-08-21T15:14:59;97151.78;;;27.26;30.62
50774;BME280;36745;48.544;8.918;2022-08-21T15:18:00;97155.84;;;27.17;30.62
50774;BME280;36745;48.544;8.918;2022-08-21T15:21:04;97144.19;;;27.21;30.75
50774;BME280;36745;48.544;8.918;2022-08-21T15:24:07;97147.19;;;27.15;30.61
50774;BME280;36745;48.544;8.918;2022-08-21T15:27:09;97143.00;;;27.08;30.62
50774;BME280;36745;48.544;8.918;2022-08-21T15:30:11;97147.13;;;27.07;30.62
50774;BME280;36745;48.544;8.918;2022-08-21T15:33:15;97150.41;;;26.91;30.50
50774;BME280;36745;48.544;8.918;2022-08-21T15:36:16;97139.97;;;26.86;30.79
50774;BME280;36745;48.544;8.918;2022-08-21T15:39:17;97142.41;;;26.82;30.80
50774;BME280;36745;48.544;8.918;2022-08-21T15:42:22;97146.47;;;26.73;31.06
50774;BME280;36745;48.544;8.918;2022-08-21T15:45:24;97131.81;;;26.54;30.65
50774;BME280;36745;48.544;8.918;2022-08-21T15:48:28;97132.16;;;26.29;31.08
50774;BME280;36745;48.544;8.918;2022-08-21T15:51:29;97127.84;;;26.15;31.17
50774;BME280;36745;48.544;8.918;2022-08-21T15:54:30;97128.78;;;25.97;31.14
50774;BME280;36745;48.544;8.918;2022-08-21T15:57:35;97121.56;;;26.09;31.25
50774;BME280;36745;48.544;8.918;2022-08-21T16:00:39;97118.91;;;26.24;31.62
50774;BME280;36745;48.544;8.918;2022-08-21T16:03:47;97125.41;;;26.33;31.43
50774;BME280;36745;48.544;8.918;2022-08-21T16:06:49;97122.31;;;26.23;30.93
50774;BME280;36745;48.544;8.918;2022-08-21T16:09:50;97121.03;;;26.11;31.51
50774;BME280;36745;48.544;8.918;2022-08-21T16:12:57;97126.59;;;26.03;31.61
50774;BME280;36745;48.544;8.918;2022-08-21T16:15:59;97119.03;;;25.98;31.47
50774;BME280;36745;48.544;8.918;2022-08-21T16:19:02;97117.09;;;25.93;31.88
50774;BME280;36745;48.544;8.918;2022-08-21T16:22:03;97110.13;;;25.94;31.79
50774;BME280;36745;48.544;8.918;2022-08-21T16:25:06;97117.44;;;25.89;31.85
50774;BME280;36745;48.544;8.918;2022-08-21T16:28:08;97110.81;;;25.87;31.90
50774;BME280;36745;48.544;8.918;2022-08-21T16:31:12;97118.88;;;25.83;32.00
50774;BME280;36745;48.544;8.918;2022-08-21T16:34:19;97113.44;;;25.85;32.47
50774;BME280;36745;48.544;8.918;2022-08-21T16:37:20;97116.25;;;25.85;32.26
50774;BME280;36745;48.544;8.918;2022-08-21T16:40:22;97114.31;;;25.80;32.25
50774;BME280;36745;48.544;8.918;2022-08-21T16:43:25;97110.88;;;25.74;32.34
50774;BME280;36745;48.544;8.918;2022-08-21T16:46:28;97110.34;;;25.62;32.33
50774;BME280;36745;48.544;8.918;2022-08-21T16:49:33;97108.97;;;25.56;32.61
50774;BME280;36745;48.544;8.918;2022-08-21T16:52:34;97118.94;;;25.57;32.49
50774;BME280;36745;48.544;8.918;2022-08-21T16:55:36;97112.84;;;25.53;32.85
50774;BME280;36745;48.544;8.918;2022-08-21T16:58:41;97113.50;;;25.45;32.68
50774;BME280;36745;48.544;8.918;2022-08-21T17:01:44;97110.06;;;25.39;32.80
50774;BME280;36745;48.544;8.918;2022-08-21T17:04:45;97111.47;;;25.33;33.14
50774;BME280;36745;48.544;8.918;2022-08-21T17:07:46;97117.22;;;25.27;32.89
50774;BME280;36745;48.544;8.918;2022-08-21T17:10:48;97110.94;;;25.21;33.19
50774;BME280;36745;48.544;8.918;2022-08-21T17:13:50;97109.00;;;25.16;33.00
50774;BME280;36745;48.544;8.918;2022-08-21T17:16:53;97101.09;;;25.15;33.19
50774;BME280;36745;48.544;8.918;2022-08-21T17:19:55;97108.78;;;25.14;32.99
50774;BME280;36745;48.544;8.918;2022-08-21T17:22:59;97110.97;;;25.08;33.57
50774;BME280;36745;48.544;8.918;2022-08-21T17:26:00;97108.16;;;25.08;33.39
50774;BME280;36745;48.544;8.918;2022-08-21T17:29:03;97108.78;;;25.01;33.73
50774;BME280;36745;48.544;8.918;2022-08-21T17:32:11;97109.47;;;24.94;33.79
50774;BME280;36745;48.544;8.918;2022-08-21T17:35:12;97109.66;;;24.83;33.87